P'ing-tung, Taiwan
Current Conditions -  °F | °C
As of 8:30 PM on Monday 20 Oct 2014 (Local Time) from RCKH Reporting Station
Few Clouds Few Clouds  
Wind Chill: 81°   Ceiling: Unl
Heat Index: 83°   Visibility: 6mi
Dew Point: 68°   Wind: 3mph
Humidity: 65%   Direction: 310°NW
Pressure: 29.94"   Gusts: NA
Location:  22.67°N, 120.48°E
Report Text: RCKH 201230Z 31003KT 260V340 9999 FEW015 27/20 Q1014 NOSIGRMK A2997
Loading
Personal Weather Stations






























Interactive Weather Map
Tropical Storm Tracking
New forecast layout! Learn more

10-Day Weather Forecast

Advertisements
Track Severe Weather on mobile